sensor_id;sensor_type;location;lat;lon;timestamp;P1;durP1;ratioP1;P2;durP2;ratioP2
28176;SDS011;15461;41.652;9.378;2023-05-10T00:01:30;4.90;;;3.72;;
28176;SDS011;15461;41.652;9.378;2023-05-10T00:03:56;7.88;;;3.85;;
28176;SDS011;15461;41.652;9.378;2023-05-10T00:06:22;7.70;;;4.32;;
28176;SDS011;15461;41.652;9.378;2023-05-10T00:08:48;7.43;;;4.38;;
28176;SDS011;15461;41.652;9.378;2023-05-10T00:11:14;7.57;;;3.97;;
28176;SDS011;15461;41.652;9.378;2023-05-10T00:13:40;11.70;;;4.28;;
28176;SDS011;15461;41.652;9.378;2023-05-10T00:16:06;8.32;;;3.88;;
28176;SDS011;15461;41.652;9.378;2023-05-10T00:18:32;6.75;;;4.18;;
28176;SDS011;15461;41.652;9.378;2023-05-10T00:20:58;5.22;;;3.47;;
28176;SDS011;15461;41.652;9.378;2023-05-10T00:23:24;6.47;;;3.85;;
28176;SDS011;15461;41.652;9.378;2023-05-10T00:25:50;5.93;;;3.45;;
28176;SDS011;15461;41.652;9.378;2023-05-10T00:28:15;5.32;;;3.47;;
28176;SDS011;15461;41.652;9.378;2023-05-10T00:30:41;9.93;;;4.00;;
28176;SDS011;15461;41.652;9.378;2023-05-10T00:33:07;7.47;;;3.42;;
28176;SDS011;15461;41.652;9.378;2023-05-10T00:35:33;6.72;;;3.92;;
28176;SDS011;15461;41.652;9.378;2023-05-10T00:37:59;6.38;;;3.88;;
28176;SDS011;15461;41.652;9.378;2023-05-10T00:40:25;5.65;;;3.35;;
28176;SDS011;15461;41.652;9.378;2023-05-10T00:42:56;5.78;;;2.95;;
28176;SDS011;15461;41.652;9.378;2023-05-10T00:45:23;4.07;;;2.90;;
28176;SDS011;15461;41.652;9.378;2023-05-10T00:47:50;3.47;;;2.67;;
28176;SDS011;15461;41.652;9.378;2023-05-10T00:50:20;3.53;;;2.70;;
28176;SDS011;15461;41.652;9.378;2023-05-10T00:52:47;6.03;;;3.00;;
28176;SDS011;15461;41.652;9.378;2023-05-10T00:55:14;4.78;;;3.00;;
28176;SDS011;15461;41.652;9.378;2023-05-10T00:57:40;5.68;;;3.20;;
28176;SDS011;15461;41.652;9.378;2023-05-10T01:00:07;4.53;;;2.90;;
28176;SDS011;15461;41.652;9.378;2023-05-10T01:02:34;4.72;;;2.78;;
28176;SDS011;15461;41.652;9.378;2023-05-10T01:05:01;4.35;;;2.90;;
28176;SDS011;15461;41.652;9.378;2023-05-10T01:07:28;4.43;;;2.92;;
28176;SDS011;15461;41.652;9.378;2023-05-10T01:09:55;5.45;;;2.85;;
28176;SDS011;15461;41.652;9.378;2023-05-10T01:12:21;8.07;;;2.92;;
28176;SDS011;15461;41.652;9.378;2023-05-10T01:14:47;4.40;;;2.70;;
28176;SDS011;15461;41.652;9.378;2023-05-10T01:17:13;4.05;;;2.70;;
28176;SDS011;15461;41.652;9.378;2023-05-10T01:19:41;4.68;;;2.30;;
28176;SDS011;15461;41.652;9.378;2023-05-10T01:28:17;3.00;;;1.75;;
28176;SDS011;15461;41.652;9.378;2023-05-10T01:31:18;2.58;;;1.60;;
28176;SDS011;15461;41.652;9.378;2023-05-10T01:34:09;2.60;;;1.45;;
28176;SDS011;15461;41.652;9.378;2023-05-10T01:36:47;2.63;;;1.50;;
28176;SDS011;15461;41.652;9.378;2023-05-10T01:39:21;1.67;;;1.15;;
28176;SDS011;15461;41.652;9.378;2023-05-10T01:42:08;2.33;;;1.20;;
28176;SDS011;15461;41.652;9.378;2023-05-10T01:44:41;2.20;;;1.27;;
28176;SDS011;15461;41.652;9.378;2023-05-10T01:47:17;1.27;;;0.95;;
28176;SDS011;15461;41.652;9.378;2023-05-10T01:49:52;2.67;;;0.90;;
28176;SDS011;15461;41.652;9.378;2023-05-10T01:52:22;1.33;;;1.00;;
28176;SDS011;15461;41.652;9.378;2023-05-10T01:54:56;1.10;;;1.00;;
28176;SDS011;15461;41.652;9.378;2023-05-10T01:57:27;3.10;;;0.90;;
28176;SDS011;15461;41.652;9.378;2023-05-10T02:00:01;6.82;;;1.00;;
28176;SDS011;15461;41.652;9.378;2023-05-10T02:02:40;2.38;;;0.90;;
28176;SDS011;15461;41.652;9.378;2023-05-10T02:05:11;3.45;;;1.10;;
28176;SDS011;15461;41.652;9.378;2023-05-10T02:07:38;1.08;;;0.90;;
28176;SDS011;15461;41.652;9.378;2023-05-10T02:10:06;3.25;;;0.90;;
28176;SDS011;15461;41.652;9.378;2023-05-10T02:12:38;4.10;;;0.90;;
28176;SDS011;15461;41.652;9.378;2023-05-10T02:15:10;1.58;;;0.82;;
28176;SDS011;15461;41.652;9.378;2023-05-10T02:17:38;1.80;;;1.00;;
28176;SDS011;15461;41.652;9.378;2023-05-10T02:20:06;3.50;;;1.05;;
28176;SDS011;15461;41.652;9.378;2023-05-10T02:22:33;2.33;;;1.00;;
28176;SDS011;15461;41.652;9.378;2023-05-10T02:25:00;3.67;;;1.08;;
28176;SDS011;15461;41.652;9.378;2023-05-10T02:27:27;17.20;;;1.27;;
28176;SDS011;15461;41.652;9.378;2023-05-10T02:29:54;3.47;;;1.10;;
28176;SDS011;15461;41.652;9.378;2023-05-10T02:32:21;3.22;;;0.90;;
28176;SDS011;15461;41.652;9.378;2023-05-10T02:34:50;5.03;;;1.25;;
28176;SDS011;15461;41.652;9.378;2023-05-10T02:37:18;1.50;;;0.90;;
28176;SDS011;15461;41.652;9.378;2023-05-10T02:39:46;5.78;;;1.38;;
28176;SDS011;15461;41.652;9.378;2023-05-10T02:42:14;2.88;;;1.27;;
28176;SDS011;15461;41.652;9.378;2023-05-10T02:44:43;2.17;;;1.20;;
28176;SDS011;15461;41.652;9.378;2023-05-10T02:47:14;3.88;;;1.13;;
28176;SDS011;15461;41.652;9.378;2023-05-10T02:49:40;4.63;;;1.27;;
28176;SDS011;15461;41.652;9.378;2023-05-10T02:52:07;4.40;;;1.33;;
28176;SDS011;15461;41.652;9.378;2023-05-10T02:54:48;3.72;;;1.30;;
28176;SDS011;15461;41.652;9.378;2023-05-10T02:57:17;4.40;;;1.48;;
28176;SDS011;15461;41.652;9.378;2023-05-10T02:59:51;4.75;;;1.70;;
28176;SDS011;15461;41.652;9.378;2023-05-10T03:02:17;5.15;;;1.40;;
28176;SDS011;15461;41.652;9.378;2023-05-10T03:04:43;3.67;;;1.50;;
28176;SDS011;15461;41.652;9.378;2023-05-10T03:07:09;6.13;;;1.63;;
28176;SDS011;15461;41.652;9.378;2023-05-10T03:09:36;4.10;;;1.30;;
28176;SDS011;15461;41.652;9.378;2023-05-10T03:15:12;4.85;;;1.50;;
28176;SDS011;15461;41.652;9.378;2023-05-10T03:18:01;5.47;;;1.65;;
28176;SDS011;15461;41.652;9.378;2023-05-10T03:20:37;8.60;;;1.58;;
28176;SDS011;15461;41.652;9.378;2023-05-10T03:23:12;5.85;;;1.55;;
28176;SDS011;15461;41.652;9.378;2023-05-10T03:25:46;4.88;;;1.70;;
28176;SDS011;15461;41.652;9.378;2023-05-10T03:28:15;8.32;;;2.10;;
28176;SDS011;15461;41.652;9.378;2023-05-10T03:30:43;10.43;;;2.13;;
28176;SDS011;15461;41.652;9.378;2023-05-10T03:33:11;12.40;;;2.03;;
28176;SDS011;15461;41.652;9.378;2023-05-10T03:35:41;6.10;;;1.55;;
28176;SDS011;15461;41.652;9.378;2023-05-10T03:38:09;7.38;;;2.00;;
28176;SDS011;15461;41.652;9.378;2023-05-10T03:40:35;9.05;;;1.70;;
28176;SDS011;15461;41.652;9.378;2023-05-10T03:43:01;11.07;;;2.03;;
28176;SDS011;15461;41.652;9.378;2023-05-10T03:45:27;5.45;;;1.85;;
28176;SDS011;15461;41.652;9.378;2023-05-10T03:47:53;10.93;;;1.98;;
28176;SDS011;15461;41.652;9.378;2023-05-10T03:50:19;14.48;;;2.15;;
28176;SDS011;15461;41.652;9.378;2023-05-10T03:52:46;14.45;;;2.33;;
28176;SDS011;15461;41.652;9.378;2023-05-10T03:55:12;14.18;;;2.88;;
28176;SDS011;15461;41.652;9.378;2023-05-10T03:57:38;13.85;;;2.40;;
28176;SDS011;15461;41.652;9.378;2023-05-10T04:00:06;8.98;;;1.98;;
28176;SDS011;15461;41.652;9.378;2023-05-10T04:02:39;15.38;;;1.90;;
28176;SDS011;15461;41.652;9.378;2023-05-10T04:05:07;9.63;;;2.50;;
28176;SDS011;15461;41.652;9.378;2023-05-10T04:07:34;13.23;;;2.22;;
28176;SDS011;15461;41.652;9.378;2023-05-10T04:10:00;17.13;;;2.30;;
28176;SDS011;15461;41.652;9.378;2023-05-10T04:12:26;9.15;;;2.40;;
28176;SDS011;15461;41.652;9.378;2023-05-10T04:14:52;17.85;;;2.78;;
28176;SDS011;15461;41.652;9.378;2023-05-10T04:17:18;15.88;;;2.38;;
28176;SDS011;15461;41.652;9.378;2023-05-10T04:19:44;12.77;;;2.03;;
28176;SDS011;15461;41.652;9.378;2023-05-10T04:22:10;10.40;;;2.05;;
28176;SDS011;15461;41.652;9.378;2023-05-10T04:24:35;9.43;;;1.73;;
28176;SDS011;15461;41.652;9.378;2023-05-10T04:27:01;17.15;;;2.33;;
28176;SDS011;15461;41.652;9.378;2023-05-10T04:29:27;12.15;;;2.25;;
28176;SDS011;15461;41.652;9.378;2023-05-10T04:31:54;10.52;;;1.70;;
28176;SDS011;15461;41.652;9.378;2023-05-10T04:34:21;9.20;;;1.60;;
28176;SDS011;15461;41.652;9.378;2023-05-10T04:36:47;10.07;;;1.60;;
28176;SDS011;15461;41.652;9.378;2023-05-10T04:39:13;10.93;;;1.83;;
28176;SDS011;15461;41.652;9.378;2023-05-10T04:41:39;10.85;;;1.65;;
28176;SDS011;15461;41.652;9.378;2023-05-10T04:44:05;17.02;;;2.42;;
28176;SDS011;15461;41.652;9.378;2023-05-10T04:46:31;14.77;;;2.00;;
28176;SDS011;15461;41.652;9.378;2023-05-10T04:48:57;13.77;;;2.58;;
28176;SDS011;15461;41.652;9.378;2023-05-10T04:51:23;8.07;;;1.45;;
28176;SDS011;15461;41.652;9.378;2023-05-10T04:53:49;11.75;;;1.90;;
28176;SDS011;15461;41.652;9.378;2023-05-10T04:56:15;12.88;;;1.80;;
28176;SDS011;15461;41.652;9.378;2023-05-10T04:58:41;9.40;;;2.08;;
28176;SDS011;15461;41.652;9.378;2023-05-10T05:01:08;13.40;;;2.22;;
28176;SDS011;15461;41.652;9.378;2023-05-10T05:03:35;15.40;;;2.17;;
28176;SDS011;15461;41.652;9.378;2023-05-10T05:06:02;10.98;;;1.92;;
28176;SDS011;15461;41.652;9.378;2023-05-10T05:08:28;14.20;;;2.15;;
28176;SDS011;15461;41.652;9.378;2023-05-10T05:10:54;14.60;;;2.03;;
28176;SDS011;15461;41.652;9.378;2023-05-10T05:13:20;10.63;;;2.20;;
28176;SDS011;15461;41.652;9.378;2023-05-10T05:15:45;9.23;;;1.70;;
28176;SDS011;15461;41.652;9.378;2023-05-10T05:18:11;16.80;;;1.90;;
28176;SDS011;15461;41.652;9.378;2023-05-10T05:20:37;13.45;;;1.85;;
28176;SDS011;15461;41.652;9.378;2023-05-10T05:23:03;15.00;;;2.47;;
28176;SDS011;15461;41.652;9.378;2023-05-10T05:25:29;15.55;;;2.50;;
28176;SDS011;15461;41.652;9.378;2023-05-10T05:27:55;14.60;;;2.20;;
28176;SDS011;15461;41.652;9.378;2023-05-10T05:30:21;16.38;;;2.40;;
28176;SDS011;15461;41.652;9.378;2023-05-10T05:32:47;19.48;;;2.92;;
28176;SDS011;15461;41.652;9.378;2023-05-10T05:35:13;18.27;;;2.72;;
28176;SDS011;15461;41.652;9.378;2023-05-10T05:37:39;16.38;;;2.30;;
28176;SDS011;15461;41.652;9.378;2023-05-10T05:40:05;14.73;;;2.63;;
28176;SDS011;15461;41.652;9.378;2023-05-10T05:42:31;13.32;;;2.70;;
28176;SDS011;15461;41.652;9.378;2023-05-10T05:44:57;16.38;;;2.67;;
28176;SDS011;15461;41.652;9.378;2023-05-10T05:47:24;18.98;;;3.70;;
28176;SDS011;15461;41.652;9.378;2023-05-10T05:49:50;15.18;;;2.85;;
28176;SDS011;15461;41.652;9.378;2023-05-10T05:52:16;19.42;;;3.15;;
28176;SDS011;15461;41.652;9.378;2023-05-10T05:54:42;22.25;;;3.80;;
28176;SDS011;15461;41.652;9.378;2023-05-10T05:57:07;18.55;;;2.78;;
28176;SDS011;15461;41.652;9.378;2023-05-10T05:59:34;23.92;;;3.13;;
28176;SDS011;15461;41.652;9.378;2023-05-10T06:02:00;14.27;;;2.63;;
28176;SDS011;15461;41.652;9.378;2023-05-10T06:04:25;15.68;;;3.53;;
28176;SDS011;15461;41.652;9.378;2023-05-10T06:06:51;10.25;;;2.50;;
28176;SDS011;15461;41.652;9.378;2023-05-10T06:09:17;19.20;;;2.50;;
28176;SDS011;15461;41.652;9.378;2023-05-10T06:11:43;19.77;;;3.75;;
28176;SDS011;15461;41.652;9.378;2023-05-10T06:14:09;19.23;;;3.10;;
28176;SDS011;15461;41.652;9.378;2023-05-10T06:16:35;15.07;;;2.58;;
28176;SDS011;15461;41.652;9.378;2023-05-10T06:19:01;20.20;;;3.15;;
28176;SDS011;15461;41.652;9.378;2023-05-10T06:21:28;17.48;;;3.47;;
28176;SDS011;15461;41.652;9.378;2023-05-10T06:23:53;13.68;;;2.65;;
28176;SDS011;15461;41.652;9.378;2023-05-10T06:26:19;18.40;;;3.65;;
28176;SDS011;15461;41.652;9.378;2023-05-10T06:28:46;13.43;;;2.60;;
28176;SDS011;15461;41.652;9.378;2023-05-10T06:31:11;12.27;;;2.55;;
28176;SDS011;15461;41.652;9.378;2023-05-10T06:33:37;15.48;;;2.45;;
28176;SDS011;15461;41.652;9.378;2023-05-10T06:36:03;12.15;;;2.45;;
28176;SDS011;15461;41.652;9.378;2023-05-10T06:38:29;13.05;;;2.13;;
28176;SDS011;15461;41.652;9.378;2023-05-10T06:40:58;13.88;;;2.60;;
28176;SDS011;15461;41.652;9.378;2023-05-10T06:43:24;20.77;;;2.53;;
28176;SDS011;15461;41.652;9.378;2023-05-10T06:45:51;9.65;;;2.28;;
28176;SDS011;15461;41.652;9.378;2023-05-10T06:48:17;14.05;;;2.42;;
28176;SDS011;15461;41.652;9.378;2023-05-10T06:50:59;18.95;;;3.22;;
28176;SDS011;15461;41.652;9.378;2023-05-10T06:53:25;16.80;;;2.95;;
28176;SDS011;15461;41.652;9.378;2023-05-10T06:55:50;16.33;;;3.20;;
28176;SDS011;15461;41.652;9.378;2023-05-10T06:58:16;12.75;;;2.65;;
28176;SDS011;15461;41.652;9.378;2023-05-10T07:00:42;16.58;;;2.65;;
28176;SDS011;15461;41.652;9.378;2023-05-10T07:03:10;14.18;;;2.80;;
28176;SDS011;15461;41.652;9.378;2023-05-10T07:05:36;10.77;;;2.05;;
28176;SDS011;15461;41.652;9.378;2023-05-10T07:08:02;12.88;;;2.20;;
28176;SDS011;15461;41.652;9.378;2023-05-10T07:10:28;14.15;;;2.33;;
28176;SDS011;15461;41.652;9.378;2023-05-10T07:12:55;14.82;;;2.10;;
28176;SDS011;15461;41.652;9.378;2023-05-10T07:15:21;10.82;;;2.22;;
28176;SDS011;15461;41.652;9.378;2023-05-10T07:17:47;12.10;;;2.80;;
28176;SDS011;15461;41.652;9.378;2023-05-10T07:20:13;10.13;;;1.80;;
28176;SDS011;15461;41.652;9.378;2023-05-10T07:22:39;12.40;;;1.90;;
28176;SDS011;15461;41.652;9.378;2023-05-10T07:25:05;12.07;;;2.40;;
28176;SDS011;15461;41.652;9.378;2023-05-10T07:27:31;7.63;;;1.75;;
28176;SDS011;15461;41.652;9.378;2023-05-10T07:29:57;12.00;;;1.80;;
28176;SDS011;15461;41.652;9.378;2023-05-10T07:32:23;9.55;;;2.08;;
28176;SDS011;15461;41.652;9.378;2023-05-10T07:34:49;10.85;;;1.92;;
28176;SDS011;15461;41.652;9.378;2023-05-10T07:37:15;18.70;;;2.30;;
28176;SDS011;15461;41.652;9.378;2023-05-10T07:39:41;8.80;;;1.90;;
28176;SDS011;15461;41.652;9.378;2023-05-10T07:42:07;19.00;;;2.30;;
28176;SDS011;15461;41.652;9.378;2023-05-10T07:44:33;11.73;;;2.28;;
28176;SDS011;15461;41.652;9.378;2023-05-10T07:46:59;10.43;;;2.10;;
28176;SDS011;15461;41.652;9.378;2023-05-10T07:49:25;10.93;;;1.75;;
28176;SDS011;15461;41.652;9.378;2023-05-10T07:51:51;9.57;;;2.40;;
28176;SDS011;15461;41.652;9.378;2023-05-10T07:54:17;7.93;;;1.90;;
28176;SDS011;15461;41.652;9.378;2023-05-10T07:56:42;7.80;;;1.92;;
28176;SDS011;15461;41.652;9.378;2023-05-10T07:59:15;10.05;;;2.03;;
28176;SDS011;15461;41.652;9.378;2023-05-10T08:01:42;10.15;;;1.90;;
28176;SDS011;15461;41.652;9.378;2023-05-10T08:04:08;6.93;;;1.80;;
28176;SDS011;15461;41.652;9.378;2023-05-10T08:06:34;8.70;;;1.80;;
28176;SDS011;15461;41.652;9.378;2023-05-10T08:09:00;8.82;;;2.10;;
28176;SDS011;15461;41.652;9.378;2023-05-10T08:11:26;9.98;;;1.88;;
28176;SDS011;15461;41.652;9.378;2023-05-10T08:13:53;11.13;;;1.73;;
28176;SDS011;15461;41.652;9.378;2023-05-10T08:16:19;8.73;;;1.90;;
28176;SDS011;15461;41.652;9.378;2023-05-10T08:18:45;10.63;;;1.98;;
28176;SDS011;15461;41.652;9.378;2023-05-10T08:21:12;8.50;;;1.80;;
28176;SDS011;15461;41.652;9.378;2023-05-10T08:23:38;6.20;;;1.90;;
28176;SDS011;15461;41.652;9.378;2023-05-10T08:26:04;9.52;;;1.90;;
28176;SDS011;15461;41.652;9.378;2023-05-10T08:28:30;11.80;;;2.35;;
28176;SDS011;15461;41.652;9.378;2023-05-10T08:30:56;9.85;;;2.00;;
28176;SDS011;15461;41.652;9.378;2023-05-10T08:33:22;12.90;;;2.40;;
28176;SDS011;15461;41.652;9.378;2023-05-10T08:35:48;11.25;;;1.95;;
28176;SDS011;15461;41.652;9.378;2023-05-10T08:38:14;10.85;;;2.08;;
28176;SDS011;15461;41.652;9.378;2023-05-10T08:40:41;9.57;;;2.20;;
28176;SDS011;15461;41.652;9.378;2023-05-10T08:43:10;9.52;;;2.20;;
28176;SDS011;15461;41.652;9.378;2023-05-10T08:45:38;8.07;;;2.35;;
28176;SDS011;15461;41.652;9.378;2023-05-10T08:48:09;11.70;;;2.25;;
28176;SDS011;15461;41.652;9.378;2023-05-10T08:50:38;11.05;;;2.30;;
28176;SDS011;15461;41.652;9.378;2023-05-10T08:53:06;13.43;;;2.72;;
28176;SDS011;15461;41.652;9.378;2023-05-10T08:55:35;11.25;;;1.98;;
28176;SDS011;15461;41.652;9.378;2023-05-10T08:58:03;6.00;;;1.92;;
28176;SDS011;15461;41.652;9.378;2023-05-10T09:00:30;8.02;;;2.33;;
28176;SDS011;15461;41.652;9.378;2023-05-10T09:02:57;11.75;;;2.50;;
28176;SDS011;15461;41.652;9.378;2023-05-10T09:05:24;7.95;;;2.30;;
28176;SDS011;15461;41.652;9.378;2023-05-10T09:07:50;8.88;;;2.47;;
28176;SDS011;15461;41.652;9.378;2023-05-10T09:10:16;8.85;;;2.15;;
28176;SDS011;15461;41.652;9.378;2023-05-10T09:12:42;11.02;;;2.47;;
28176;SDS011;15461;41.652;9.378;2023-05-10T09:15:11;10.07;;;2.28;;
28176;SDS011;15461;41.652;9.378;2023-05-10T09:17:41;14.15;;;2.40;;
28176;SDS011;15461;41.652;9.378;2023-05-10T09:20:08;9.80;;;2.58;;
28176;SDS011;15461;41.652;9.378;2023-05-10T09:22:34;13.75;;;3.00;;
28176;SDS011;15461;41.652;9.378;2023-05-10T09:25:10;12.35;;;2.83;;
28176;SDS011;15461;41.652;9.378;2023-05-10T09:27:41;7.28;;;2.17;;
28176;SDS011;15461;41.652;9.378;2023-05-10T09:30:11;11.05;;;2.40;;
28176;SDS011;15461;41.652;9.378;2023-05-10T09:32:54;11.88;;;2.58;;
28176;SDS011;15461;41.652;9.378;2023-05-10T09:35:22;9.20;;;2.30;;
28176;SDS011;15461;41.652;9.378;2023-05-10T09:37:50;10.80;;;2.22;;
28176;SDS011;15461;41.652;9.378;2023-05-10T09:40:18;11.73;;;2.47;;
28176;SDS011;15461;41.652;9.378;2023-05-10T09:42:55;10.95;;;2.33;;
28176;SDS011;15461;41.652;9.378;2023-05-10T09:45:30;7.80;;;2.10;;
28176;SDS011;15461;41.652;9.378;2023-05-10T09:47:57;14.20;;;2.53;;
28176;SDS011;15461;41.652;9.378;2023-05-10T09:50:24;10.40;;;2.08;;
28176;SDS011;15461;41.652;9.378;2023-05-10T09:52:55;7.22;;;1.73;;
28176;SDS011;15461;41.652;9.378;2023-05-10T09:55:38;12.17;;;1.90;;
28176;SDS011;15461;41.652;9.378;2023-05-10T09:58:04;21.30;;;2.50;;
28176;SDS011;15461;41.652;9.378;2023-05-10T10:00:35;10.18;;;2.67;;
28176;SDS011;15461;41.652;9.378;2023-05-10T10:03:05;12.20;;;2.15;;
28176;SDS011;15461;41.652;9.378;2023-05-10T10:05:39;16.40;;;2.28;;
28176;SDS011;15461;41.652;9.378;2023-05-10T10:08:07;11.57;;;2.30;;
28176;SDS011;15461;41.652;9.378;2023-05-10T10:10:33;6.50;;;1.67;;
28176;SDS011;15461;41.652;9.378;2023-05-10T10:13:00;9.00;;;1.83;;
28176;SDS011;15461;41.652;9.378;2023-05-10T10:15:27;7.22;;;1.92;;
28176;SDS011;15461;41.652;9.378;2023-05-10T10:17:53;6.32;;;1.75;;
28176;SDS011;15461;41.652;9.378;2023-05-10T10:20:19;9.48;;;2.00;;
28176;SDS011;15461;41.652;9.378;2023-05-10T10:22:47;9.27;;;1.80;;
28176;SDS011;15461;41.652;9.378;2023-05-10T10:25:15;8.43;;;1.80;;
28176;SDS011;15461;41.652;9.378;2023-05-10T10:33:40;6.95;;;1.80;;
28176;SDS011;15461;41.652;9.378;2023-05-10T10:36:45;9.38;;;2.03;;
28176;SDS011;15461;41.652;9.378;2023-05-10T10:39:12;6.85;;;1.27;;
28176;SDS011;15461;41.652;9.378;2023-05-10T10:41:40;8.45;;;1.70;;
28176;SDS011;15461;41.652;9.378;2023-05-10T10:49:38;9.40;;;1.98;;
28176;SDS011;15461;41.652;9.378;2023-05-10T10:52:28;15.38;;;1.80;;
28176;SDS011;15461;41.652;9.378;2023-05-10T10:55:09;7.88;;;1.80;;
28176;SDS011;15461;41.652;9.378;2023-05-10T11:05:34;13.18;;;2.30;;
28176;SDS011;15461;41.652;9.378;2023-05-10T11:08:08;11.75;;;2.20;;
28176;SDS011;15461;41.652;9.378;2023-05-10T11:10:34;9.20;;;2.00;;
28176;SDS011;15461;41.652;9.378;2023-05-10T11:13:03;6.50;;;2.10;;
28176;SDS011;15461;41.652;9.378;2023-05-10T11:15:34;8.18;;;2.03;;
28176;SDS011;15461;41.652;9.378;2023-05-10T11:18:17;7.05;;;1.90;;
28176;SDS011;15461;41.652;9.378;2023-05-10T11:20:52;7.35;;;1.48;;
28176;SDS011;15461;41.652;9.378;2023-05-10T11:23:22;6.65;;;2.10;;
28176;SDS011;15461;41.652;9.378;2023-05-10T11:25:48;11.52;;;1.90;;
28176;SDS011;15461;41.652;9.378;2023-05-10T11:28:16;8.40;;;2.08;;
28176;SDS011;15461;41.652;9.378;2023-05-10T11:30:44;10.63;;;2.08;;
28176;SDS011;15461;41.652;9.378;2023-05-10T11:33:14;9.13;;;2.03;;
28176;SDS011;15461;41.652;9.378;2023-05-10T11:35:44;12.77;;;2.00;;
28176;SDS011;15461;41.652;9.378;2023-05-10T11:38:11;11.13;;;1.80;;
28176;SDS011;15461;41.652;9.378;2023-05-10T11:40:38;13.20;;;1.90;;
28176;SDS011;15461;41.652;9.378;2023-05-10T11:43:05;9.00;;;1.90;;
28176;SDS011;15461;41.652;9.378;2023-05-10T11:45:32;6.88;;;1.75;;
28176;SDS011;15461;41.652;9.378;2023-05-10T11:47:58;6.22;;;1.73;;
28176;SDS011;15461;41.652;9.378;2023-05-10T11:50:25;7.53;;;1.90;;
28176;SDS011;15461;41.652;9.378;2023-05-10T11:52:52;8.60;;;1.67;;
28176;SDS011;15461;41.652;9.378;2023-05-10T11:55:18;7.93;;;2.38;;
28176;SDS011;15461;41.652;9.378;2023-05-10T11:57:44;8.88;;;1.75;;
28176;SDS011;15461;41.652;9.378;2023-05-10T12:00:11;10.52;;;2.15;;
28176;SDS011;15461;41.652;9.378;2023-05-10T12:02:38;10.10;;;1.80;;
28176;SDS011;15461;41.652;9.378;2023-05-10T12:05:05;10.77;;;2.00;;
28176;SDS011;15461;41.652;9.378;2023-05-10T12:07:31;9.20;;;1.92;;
28176;SDS011;15461;41.652;9.378;2023-05-10T12:10:07;9.57;;;2.40;;
28176;SDS011;15461;41.652;9.378;2023-05-10T12:12:51;10.93;;;1.88;;
28176;SDS011;15461;41.652;9.378;2023-05-10T12:17:45;9.57;;;2.22;;
28176;SDS011;15461;41.652;9.378;2023-05-10T12:20:21;11.13;;;2.15;;
28176;SDS011;15461;41.652;9.378;2023-05-10T12:22:53;14.55;;;3.85;;
28176;SDS011;15461;41.652;9.378;2023-05-10T12:25:23;10.50;;;4.15;;
28176;SDS011;15461;41.652;9.378;2023-05-10T12:27:53;7.82;;;3.30;;
28176;SDS011;15461;41.652;9.378;2023-05-10T12:30:21;9.55;;;3.45;;
28176;SDS011;15461;41.652;9.378;2023-05-10T12:32:47;7.10;;;3.63;;
28176;SDS011;15461;41.652;9.378;2023-05-10T12:35:13;8.00;;;4.07;;
28176;SDS011;15461;41.652;9.378;2023-05-10T12:37:40;8.90;;;3.97;;
28176;SDS011;15461;41.652;9.378;2023-05-10T12:40:09;10.07;;;4.47;;
28176;SDS011;15461;41.652;9.378;2023-05-10T12:42:36;15.75;;;4.55;;
28176;SDS011;15461;41.652;9.378;2023-05-10T12:45:04;12.63;;;4.28;;
28176;SDS011;15461;41.652;9.378;2023-05-10T12:47:31;8.48;;;3.60;;
28176;SDS011;15461;41.652;9.378;2023-05-10T12:49:58;12.07;;;3.75;;
28176;SDS011;15461;41.652;9.378;2023-05-10T12:52:25;10.65;;;4.30;;
28176;SDS011;15461;41.652;9.378;2023-05-10T12:54:52;7.38;;;3.88;;
28176;SDS011;15461;41.652;9.378;2023-05-10T12:57:19;7.55;;;3.70;;
28176;SDS011;15461;41.652;9.378;2023-05-10T12:59:45;8.63;;;4.15;;
28176;SDS011;15461;41.652;9.378;2023-05-10T13:02:11;7.18;;;4.00;;
28176;SDS011;15461;41.652;9.378;2023-05-10T13:04:38;9.23;;;4.30;;
28176;SDS011;15461;41.652;9.378;2023-05-10T13:07:07;10.23;;;4.10;;
28176;SDS011;15461;41.652;9.378;2023-05-10T13:09:33;12.48;;;4.65;;
28176;SDS011;15461;41.652;9.378;2023-05-10T13:11:59;12.00;;;4.30;;
28176;SDS011;15461;41.652;9.378;2023-05-10T13:14:25;11.52;;;4.20;;
28176;SDS011;15461;41.652;9.378;2023-05-10T13:16:51;12.50;;;4.40;;
28176;SDS011;15461;41.652;9.378;2023-05-10T13:19:17;8.07;;;4.00;;
28176;SDS011;15461;41.652;9.378;2023-05-10T13:21:43;9.50;;;4.50;;
28176;SDS011;15461;41.652;9.378;2023-05-10T13:24:10;12.40;;;4.95;;
28176;SDS011;15461;41.652;9.378;2023-05-10T13:26:39;12.98;;;4.90;;
28176;SDS011;15461;41.652;9.378;2023-05-10T13:29:05;12.35;;;4.80;;
28176;SDS011;15461;41.652;9.378;2023-05-10T13:31:32;11.27;;;5.30;;
28176;SDS011;15461;41.652;9.378;2023-05-10T13:34:02;8.90;;;4.60;;
28176;SDS011;15461;41.652;9.378;2023-05-10T13:36:28;8.73;;;4.65;;
28176;SDS011;15461;41.652;9.378;2023-05-10T13:38:54;9.05;;;4.43;;
28176;SDS011;15461;41.652;9.378;2023-05-10T13:41:20;10.35;;;5.05;;
28176;SDS011;15461;41.652;9.378;2023-05-10T13:43:46;9.73;;;4.57;;
28176;SDS011;15461;41.652;9.378;2023-05-10T13:46:14;8.98;;;4.72;;
28176;SDS011;15461;41.652;9.378;2023-05-10T13:48:39;7.93;;;4.30;;
28176;SDS011;15461;41.652;9.378;2023-05-10T13:51:05;8.95;;;4.32;;
28176;SDS011;15461;41.652;9.378;2023-05-10T13:53:31;7.20;;;4.22;;
28176;SDS011;15461;41.652;9.378;2023-05-10T13:55:57;8.73;;;4.30;;
28176;SDS011;15461;41.652;9.378;2023-05-10T13:58:23;9.48;;;4.65;;
28176;SDS011;15461;41.652;9.378;2023-05-10T14:00:49;8.93;;;3.78;;
28176;SDS011;15461;41.652;9.378;2023-05-10T14:03:15;7.53;;;3.20;;
28176;SDS011;15461;41.652;9.378;2023-05-10T14:05:41;6.30;;;3.20;;
28176;SDS011;15461;41.652;9.378;2023-05-10T14:08:07;6.95;;;3.42;;
28176;SDS011;15461;41.652;9.378;2023-05-10T14:10:34;7.10;;;3.13;;
28176;SDS011;15461;41.652;9.378;2023-05-10T14:13:00;6.90;;;2.90;;
28176;SDS011;15461;41.652;9.378;2023-05-10T14:15:26;8.55;;;3.03;;
28176;SDS011;15461;41.652;9.378;2023-05-10T14:17:52;5.22;;;3.00;;
28176;SDS011;15461;41.652;9.378;2023-05-10T14:20:18;9.25;;;2.72;;
28176;SDS011;15461;41.652;9.378;2023-05-10T14:22:44;8.77;;;3.15;;
28176;SDS011;15461;41.652;9.378;2023-05-10T14:25:10;6.10;;;2.80;;
28176;SDS011;15461;41.652;9.378;2023-05-10T14:27:36;8.32;;;3.00;;
28176;SDS011;15461;41.652;9.378;2023-05-10T14:30:02;13.95;;;3.10;;
28176;SDS011;15461;41.652;9.378;2023-05-10T14:32:29;8.18;;;3.38;;
28176;SDS011;15461;41.652;9.378;2023-05-10T14:34:57;5.13;;;2.78;;
28176;SDS011;15461;41.652;9.378;2023-05-10T14:37:22;6.50;;;2.70;;
28176;SDS011;15461;41.652;9.378;2023-05-10T14:39:48;5.95;;;2.80;;
28176;SDS011;15461;41.652;9.378;2023-05-10T14:42:16;7.25;;;3.00;;
28176;SDS011;15461;41.652;9.378;2023-05-10T14:44:41;6.32;;;2.80;;
28176;SDS011;15461;41.652;9.378;2023-05-10T14:47:07;6.10;;;2.60;;
28176;SDS011;15461;41.652;9.378;2023-05-10T14:49:33;7.72;;;3.05;;
28176;SDS011;15461;41.652;9.378;2023-05-10T14:51:59;10.35;;;2.88;;
28176;SDS011;15461;41.652;9.378;2023-05-10T14:54:25;7.38;;;3.05;;
28176;SDS011;15461;41.652;9.378;2023-05-10T14:56:51;3.88;;;2.38;;
28176;SDS011;15461;41.652;9.378;2023-05-10T14:59:17;4.15;;;2.10;;
28176;SDS011;15461;41.652;9.378;2023-05-10T15:01:43;4.88;;;2.50;;
28176;SDS011;15461;41.652;9.378;2023-05-10T15:04:09;8.05;;;2.58;;
28176;SDS011;15461;41.652;9.378;2023-05-10T15:06:35;6.20;;;2.50;;
28176;SDS011;15461;41.652;9.378;2023-05-10T15:09:02;5.45;;;2.40;;
28176;SDS011;15461;41.652;9.378;2023-05-10T15:11:28;7.28;;;2.60;;
28176;SDS011;15461;41.652;9.378;2023-05-10T15:13:55;5.43;;;2.80;;
28176;SDS011;15461;41.652;9.378;2023-05-10T15:16:21;6.40;;;2.90;;
28176;SDS011;15461;41.652;9.378;2023-05-10T15:18:47;5.22;;;2.72;;